Terminal Aerodrome Forecast
Issued by NWS Paducah, KY

Home | Current Version | Previous Version | Text Only | Print | Product List | Glossary Off
Versions: 1 2 3 4 5 6 7 8 9 10 11 12

000
FTUS43 KPAH 241700
TAFEVV
TAF
KEVV 241733Z 2418/2518 16011G19KT P6SM BKN250
     FM250200 17012G19KT P6SM VCTS BKN045CB OVC150
      TEMPO 2503/2506 24025G35KT 3SM TSRA BR OVC025CB
     FM250600 21014G21KT 6SM -SHRA BR OVC008
     FM251300 32015G24KT P6SM FEW025=

USA.gov is the U.S. government's official web portal to all federal, state and local government web resources and services.